createdAt,value
2022-11-13T00:01:31.522Z,19.05
2022-11-13T00:06:37.741Z,18.72
2022-11-13T00:12:02.670Z,20.32
2022-11-13T00:17:08.830Z,19.41
2022-11-13T00:22:14.908Z,19.37
2022-11-13T00:27:21.186Z,16.40
2022-11-13T00:32:27.613Z,18.93
2022-11-13T00:37:34.290Z,17.87
2022-11-13T00:42:40.367Z,18.03
2022-11-13T00:47:46.860Z,16.56
2022-11-13T00:52:52.991Z,19.23
2022-11-13T00:57:59.174Z,16.59
2022-11-13T01:03:05.601Z,16.16
2022-11-13T01:08:12.184Z,17.25
2022-11-13T01:13:18.247Z,15.34
2022-11-13T01:18:24.757Z,16.11
2022-11-13T01:23:30.847Z,16.71
2022-11-13T01:28:37.105Z,15.43
2022-11-13T01:33:43.195Z,14.22
2022-11-13T01:38:49.470Z,13.96
2022-11-13T01:43:55.548Z,14.41
2022-11-13T01:49:02.096Z,14.07
2022-11-13T01:54:08.276Z,14.33
2022-11-13T01:59:14.448Z,14.60
2022-11-13T02:04:20.558Z,15.49
2022-11-13T02:09:26.698Z,16.54
2022-11-13T02:14:32.799Z,15.86
2022-11-13T02:19:38.981Z,13.73
2022-11-13T02:24:46.162Z,13.06
2022-11-13T02:29:50.973Z,13.37
2022-11-13T02:34:57.051Z,13.78
2022-11-13T02:40:03.346Z,14.76
2022-11-13T02:45:09.721Z,13.62
2022-11-13T02:50:16.329Z,14.58
2022-11-13T02:55:22.401Z,12.61
2022-11-13T03:00:28.668Z,12.13
2022-11-13T03:05:34.716Z,12.20
2022-11-13T03:10:41.181Z,14.09
2022-11-13T03:15:47.253Z,13.06
2022-11-13T03:20:53.768Z,14.37
2022-11-13T03:25:59.823Z,14.24
2022-11-13T03:31:06.058Z,12.41
2022-11-13T03:36:12.130Z,13.24
2022-11-13T03:41:18.260Z,12.73
2022-11-13T03:46:24.379Z,12.25
2022-11-13T03:51:30.615Z,13.95
2022-11-13T03:56:36.757Z,13.32
2022-11-13T04:01:43.360Z,15.17
2022-11-13T04:06:49.385Z,13.01
2022-11-13T04:11:55.875Z,12.67
2022-11-13T04:17:01.972Z,12.33
2022-11-13T04:22:08.143Z,13.32
2022-11-13T04:27:14.257Z,12.37
2022-11-13T04:32:20.416Z,13.25
2022-11-13T04:37:26.506Z,14.06
2022-11-13T04:42:32.759Z,14.96
2022-11-13T04:47:39.147Z,13.79
2022-11-13T04:52:46.087Z,14.27
2022-11-13T04:57:52.198Z,12.76
2022-11-13T05:02:58.362Z,14.71
2022-11-13T05:08:04.528Z,12.90
2022-11-13T05:13:10.766Z,13.07
2022-11-13T05:18:16.870Z,12.31
2022-11-13T05:23:23.015Z,12.69
2022-11-13T05:28:29.363Z,14.23
2022-11-13T05:33:34.746Z,15.45
2022-11-13T05:38:40.852Z,13.91
2022-11-13T05:43:47.016Z,14.16
2022-11-13T05:48:53.123Z,13.65
2022-11-13T05:53:59.371Z,12.72
2022-11-13T05:59:05.453Z,12.90
2022-11-13T06:04:11.934Z,13.35
2022-11-13T06:09:37.778Z,14.07
2022-11-13T06:14:44.058Z,13.83
2022-11-13T06:19:50.176Z,12.74
2022-11-13T06:24:56.404Z,13.07
2022-11-13T06:30:02.480Z,13.05
2022-11-13T06:35:09.096Z,13.83
2022-11-13T06:40:15.601Z,16.41
2022-11-13T06:45:21.738Z,14.86
2022-11-13T06:50:27.868Z,12.67
2022-11-13T06:55:34.351Z,14.94
2022-11-13T07:00:40.703Z,14.55
2022-11-13T07:05:46.662Z,15.61
2022-11-13T07:10:53.480Z,14.80
2022-11-13T07:15:59.671Z,16.07
2022-11-13T07:21:05.742Z,17.97
2022-11-13T07:26:11.939Z,16.15
2022-11-13T07:31:18.010Z,18.27
2022-11-13T07:36:24.251Z,17.99
2022-11-13T07:41:30.360Z,17.72
2022-11-13T07:46:36.543Z,17.37
2022-11-13T07:51:42.983Z,18.22
2022-11-13T07:56:49.258Z,25.22
2022-11-13T08:01:55.723Z,20.55
2022-11-13T08:07:02.024Z,17.49
2022-11-13T08:12:08.080Z,16.68
2022-11-13T08:17:14.262Z,18.01
2022-11-13T08:22:20.347Z,15.97
2022-11-13T08:27:26.505Z,17.63
2022-11-13T08:32:32.574Z,15.35
2022-11-13T08:37:39.110Z,15.53
2022-11-13T08:42:45.203Z,15.58
2022-11-13T08:47:51.455Z,16.82
2022-11-13T08:52:57.574Z,16.50
2022-11-13T08:58:04.155Z,15.96
2022-11-13T09:03:10.711Z,15.54
2022-11-13T09:08:17.077Z,15.81
2022-11-13T09:13:23.162Z,17.69
2022-11-13T09:18:29.559Z,13.62
2022-11-13T09:23:34.937Z,15.36
2022-11-13T09:28:41.516Z,15.18
2022-11-13T09:33:47.608Z,12.80
2022-11-13T09:38:53.889Z,14.34
2022-11-13T09:44:00.278Z,14.54
2022-11-13T09:49:06.149Z,14.43
2022-11-13T09:54:12.255Z,15.77
2022-11-13T09:59:18.551Z,15.14
2022-11-13T10:04:24.631Z,15.37
2022-11-13T10:09:30.863Z,15.91
2022-11-13T10:14:37.003Z,15.06
2022-11-13T10:19:43.199Z,15.33
2022-11-13T10:24:49.261Z,15.24
2022-11-13T10:29:55.458Z,14.25
2022-11-13T10:35:01.542Z,15.14
2022-11-13T10:40:07.836Z,15.82
2022-11-13T10:45:13.888Z,14.71
2022-11-13T10:50:20.219Z,13.24
2022-11-13T10:55:26.306Z,13.61
2022-11-13T11:00:32.497Z,15.02
2022-11-13T11:05:38.615Z,13.66
2022-11-13T11:10:44.871Z,14.62
2022-11-13T11:15:50.905Z,14.92
2022-11-13T11:20:57.156Z,13.61
2022-11-13T11:26:03.225Z,13.69
2022-11-13T11:31:09.359Z,13.80
2022-11-13T11:36:15.418Z,14.34
2022-11-13T11:41:21.558Z,15.41
2022-11-13T11:46:27.590Z,16.46
2022-11-13T11:51:34.096Z,16.34
2022-11-13T11:56:40.581Z,15.58
2022-11-13T12:01:46.836Z,16.38
2022-11-13T12:06:52.968Z,15.72
2022-11-13T12:11:59.200Z,13.89
2022-11-13T12:17:15.994Z,15.34
2022-11-13T12:22:11.134Z,15.10
2022-11-13T12:27:18.122Z,15.08
2022-11-13T12:32:24.586Z,15.27
2022-11-13T12:37:30.669Z,15.65
2022-11-13T12:42:37.249Z,17.74
2022-11-13T12:47:43.355Z,15.54
2022-11-13T12:52:49.582Z,15.06
2022-11-13T12:57:55.677Z,16.36
2022-11-13T13:03:01.858Z,17.24
2022-11-13T13:08:07.951Z,17.09
2022-11-13T13:13:18.251Z,17.27
2022-11-13T13:18:20.155Z,19.00
2022-11-13T13:23:26.316Z,17.61
2022-11-13T13:28:32.550Z,17.28
2022-11-13T13:33:38.605Z,16.35
2022-11-13T13:38:49.366Z,15.47
2022-11-13T13:43:50.778Z,16.69
2022-11-13T13:48:56.922Z,16.87
2022-11-13T13:54:03.150Z,16.44
2022-11-13T13:59:09.609Z,17.19
2022-11-13T14:04:15.796Z,15.11
2022-11-13T14:09:22.008Z,19.08
2022-11-13T14:14:28.211Z,16.77
2022-11-13T14:19:34.632Z,14.53
2022-11-13T14:24:40.807Z,16.35
2022-11-13T14:29:46.922Z,16.78
2022-11-13T14:34:53.335Z,15.12
2022-11-13T14:39:59.752Z,13.87
2022-11-13T14:45:05.982Z,12.93
2022-11-13T14:50:11.957Z,12.62
2022-11-13T14:55:18.414Z,14.13
2022-11-13T15:00:24.521Z,11.24
2022-11-13T15:05:31.240Z,13.06
2022-11-13T15:10:37.345Z,12.21
2022-11-13T15:15:43.721Z,10.31
2022-11-13T15:20:49.861Z,12.73
2022-11-13T15:25:56.611Z,11.04
2022-11-13T15:31:02.802Z,13.68
2022-11-13T15:36:09.040Z,12.29
2022-11-13T15:41:15.121Z,12.04
2022-11-13T15:46:21.286Z,11.18
2022-11-13T15:51:27.404Z,11.66
2022-11-13T15:56:33.693Z,12.54
2022-11-13T16:01:39.989Z,12.82
2022-11-13T16:06:46.201Z,12.50
2022-11-13T16:11:52.273Z,12.21
2022-11-13T16:16:58.598Z,14.73
2022-11-13T16:22:04.982Z,16.37
2022-11-13T16:27:13.668Z,16.66
2022-11-13T16:32:19.862Z,19.25
2022-11-13T16:37:26.053Z,20.79
2022-11-13T16:42:32.206Z,20.54
2022-11-13T16:47:38.400Z,20.76
2022-11-13T16:52:44.578Z,21.53
2022-11-13T16:57:50.790Z,21.46
2022-11-13T17:02:56.906Z,21.84
2022-11-13T17:08:03.131Z,22.87
2022-11-13T17:13:09.282Z,23.43
2022-11-13T17:18:15.485Z,23.26
2022-11-13T17:23:21.650Z,23.06
2022-11-13T17:28:27.912Z,24.34
2022-11-13T17:33:34.032Z,26.93
2022-11-13T17:38:40.334Z,27.12
2022-11-13T17:43:46.789Z,28.57
2022-11-13T17:48:53.031Z,29.64
2022-11-13T17:53:59.179Z,31.88
2022-11-13T17:59:05.379Z,33.79
2022-11-13T18:04:11.787Z,33.72
2022-11-13T18:09:18.362Z,36.45
2022-11-13T18:14:24.722Z,37.16
2022-11-13T18:19:30.912Z,37.34
2022-11-13T18:24:37.025Z,37.61
2022-11-13T18:29:43.175Z,41.69
2022-11-13T18:34:49.312Z,38.72
2022-11-13T18:39:55.659Z,39.74
2022-11-13T18:45:05.728Z,38.31
2022-11-13T18:50:07.916Z,39.12
2022-11-13T18:55:14.055Z,38.38
2022-11-13T19:00:20.356Z,41.10
2022-11-13T19:05:26.416Z,37.48
2022-11-13T19:10:33.666Z,36.04
2022-11-13T19:15:40.559Z,35.34
2022-11-13T19:20:47.030Z,35.23
2022-11-13T19:25:53.129Z,35.86
2022-11-13T19:30:59.310Z,34.47
2022-11-13T19:36:05.437Z,31.82
2022-11-13T19:41:11.678Z,29.09
2022-11-13T19:46:17.752Z,27.77
2022-11-13T19:51:23.919Z,27.13
2022-11-13T19:56:30.415Z,26.25
2022-11-13T20:01:36.633Z,23.95
2022-11-13T20:06:42.736Z,26.13
2022-11-13T20:11:48.814Z,26.77
2022-11-13T20:16:54.905Z,26.34
2022-11-13T20:22:01.159Z,25.05
2022-11-13T20:27:07.258Z,23.44
2022-11-13T20:32:13.413Z,23.86
2022-11-13T20:37:19.496Z,26.13
2022-11-13T20:42:25.834Z,26.54
2022-11-13T20:47:32.017Z,27.60
2022-11-13T20:52:38.339Z,27.64
2022-11-13T20:57:44.422Z,27.76
2022-11-13T21:02:50.621Z,32.16
2022-11-13T21:07:56.752Z,30.31
2022-11-13T21:13:03.408Z,34.24
2022-11-13T21:18:09.831Z,33.00
2022-11-13T21:23:16.004Z,32.99
2022-11-13T21:28:24.685Z,37.18
2022-11-13T21:33:28.678Z,35.24
2022-11-13T21:38:35.071Z,36.08
2022-11-13T21:43:41.272Z,34.87
2022-11-13T21:48:47.707Z,33.70
2022-11-13T21:53:54.004Z,35.33
2022-11-13T21:59:00.075Z,37.39
2022-11-13T22:04:06.286Z,39.58
2022-11-13T22:09:12.407Z,36.73
2022-11-13T22:14:18.625Z,34.98
2022-11-13T22:19:28.386Z,38.13
2022-11-13T22:24:30.468Z,37.83
2022-11-13T22:29:36.524Z,40.91
2022-11-13T22:34:42.816Z,37.94
2022-11-13T22:39:49.201Z,38.41
2022-11-13T22:44:56.656Z,39.68
2022-11-13T22:50:01.306Z,37.50
2022-11-13T22:55:08.271Z,36.12
2022-11-13T23:00:14.345Z,37.59
2022-11-13T23:05:20.981Z,39.43
2022-11-13T23:10:27.030Z,40.23
2022-11-13T23:15:33.328Z,38.36
2022-11-13T23:20:39.684Z,38.46
2022-11-13T23:25:45.891Z,40.99
2022-11-13T23:30:51.940Z,39.50
2022-11-13T23:35:58.102Z,41.25
2022-11-13T23:41:04.163Z,40.15
2022-11-13T23:46:10.334Z,40.56
2022-11-13T23:51:16.362Z,38.02
2022-11-13T23:56:22.999Z,43.89
